sensor_id;sensor_type;location;lat;lon;timestamp;temperature;humidity
62555;DHT22;48610;52.144;8.624;2023-01-29T00:01:33;1.40;99.90
62555;DHT22;48610;52.144;8.624;2023-01-29T00:04:34;1.50;99.90
62555;DHT22;48610;52.144;8.624;2023-01-29T00:07:35;1.60;99.90
62555;DHT22;48610;52.144;8.624;2023-01-29T00:10:35;1.60;99.90
62555;DHT22;48610;52.144;8.624;2023-01-29T00:13:36;1.40;99.90
62555;DHT22;48610;52.144;8.624;2023-01-29T00:16:40;1.50;99.90
62555;DHT22;48610;52.144;8.624;2023-01-29T00:19:41;1.70;99.90
62555;DHT22;48610;52.144;8.624;2023-01-29T00:22:41;1.50;99.90
62555;DHT22;48610;52.144;8.624;2023-01-29T00:25:42;1.50;99.90
62555;DHT22;48610;52.144;8.624;2023-01-29T00:28:43;1.60;99.90
62555;DHT22;48610;52.144;8.624;2023-01-29T00:31:44;1.60;99.90
62555;DHT22;48610;52.144;8.624;2023-01-29T00:34:44;1.40;99.90
62555;DHT22;48610;52.144;8.624;2023-01-29T00:37:46;1.60;99.90
62555;DHT22;48610;52.144;8.624;2023-01-29T00:40:46;1.50;99.90
62555;DHT22;48610;52.144;8.624;2023-01-29T00:44:22;1.70;99.90
62555;DHT22;48610;52.144;8.624;2023-01-29T00:47:42;1.60;99.90
62555;DHT22;48610;52.144;8.624;2023-01-29T00:50:42;1.60;99.90
62555;DHT22;48610;52.144;8.624;2023-01-29T00:53:43;1.60;99.90
62555;DHT22;48610;52.144;8.624;2023-01-29T00:56:43;1.50;99.90
62555;DHT22;48610;52.144;8.624;2023-01-29T00:59:44;1.50;99.90
62555;DHT22;48610;52.144;8.624;2023-01-29T01:02:44;1.40;99.90
62555;DHT22;48610;52.144;8.624;2023-01-29T01:06:09;1.50;99.90
62555;DHT22;48610;52.144;8.624;2023-01-29T01:09:10;1.50;99.90
62555;DHT22;48610;52.144;8.624;2023-01-29T01:12:29;1.50;99.90
62555;DHT22;48610;52.144;8.624;2023-01-29T01:15:35;1.40;99.90
62555;DHT22;48610;52.144;8.624;2023-01-29T01:18:39;1.40;99.90
62555;DHT22;48610;52.144;8.624;2023-01-29T01:21:40;1.20;99.90
62555;DHT22;48610;52.144;8.624;2023-01-29T01:24:45;1.10;99.90
62555;DHT22;48610;52.144;8.624;2023-01-29T01:27:46;1.20;99.90
62555;DHT22;48610;52.144;8.624;2023-01-29T01:30:48;1.30;99.90
62555;DHT22;48610;52.144;8.624;2023-01-29T01:33:48;1.20;99.90
62555;DHT22;48610;52.144;8.624;2023-01-29T01:36:50;1.10;99.90
62555;DHT22;48610;52.144;8.624;2023-01-29T01:39:51;1.00;99.90
62555;DHT22;48610;52.144;8.624;2023-01-29T01:42:58;1.10;99.90
62555;DHT22;48610;52.144;8.624;2023-01-29T01:45:59;1.00;99.90
62555;DHT22;48610;52.144;8.624;2023-01-29T01:49:18;1.10;99.90
62555;DHT22;48610;52.144;8.624;2023-01-29T01:52:21;1.20;99.90
62555;DHT22;48610;52.144;8.624;2023-01-29T01:55:25;1.20;99.90
62555;DHT22;48610;52.144;8.624;2023-01-29T01:58:31;1.20;99.90
62555;DHT22;48610;52.144;8.624;2023-01-29T02:01:32;1.20;99.90
62555;DHT22;48610;52.144;8.624;2023-01-29T02:04:33;1.20;99.90
62555;DHT22;48610;52.144;8.624;2023-01-29T02:07:52;1.30;99.90
62555;DHT22;48610;52.144;8.624;2023-01-29T02:11:12;1.30;99.90
62555;DHT22;48610;52.144;8.624;2023-01-29T02:14:16;1.10;99.90
62555;DHT22;48610;52.144;8.624;2023-01-29T02:17:18;1.00;99.90
62555;DHT22;48610;52.144;8.624;2023-01-29T02:20:29;1.10;99.90
62555;DHT22;48610;52.144;8.624;2023-01-29T02:23:59;1.00;99.90
62555;DHT22;48610;52.144;8.624;2023-01-29T02:30:12;1.00;99.90
62555;DHT22;48610;52.144;8.624;2023-01-29T02:39:56;0.90;99.90
62555;DHT22;48610;52.144;8.624;2023-01-29T02:43:07;0.90;99.90
62555;DHT22;48610;52.144;8.624;2023-01-29T02:46:28;1.00;99.90
62555;DHT22;48610;52.144;8.624;2023-01-29T02:53:05;0.90;99.90
62555;DHT22;48610;52.144;8.624;2023-01-29T02:56:20;0.80;99.90
62555;DHT22;48610;52.144;8.624;2023-01-29T02:59:36;0.70;99.90
62555;DHT22;48610;52.144;8.624;2023-01-29T03:06:32;0.60;99.90
62555;DHT22;48610;52.144;8.624;2023-01-29T03:09:39;0.90;99.90
62555;DHT22;48610;52.144;8.624;2023-01-29T03:12:43;1.00;99.90
62555;DHT22;48610;52.144;8.624;2023-01-29T03:15:48;1.20;99.90
62555;DHT22;48610;52.144;8.624;2023-01-29T03:19:00;1.20;99.90
62555;DHT22;48610;52.144;8.624;2023-01-29T03:22:03;1.00;99.90
62555;DHT22;48610;52.144;8.624;2023-01-29T03:25:07;1.10;99.90
62555;DHT22;48610;52.144;8.624;2023-01-29T03:28:28;1.20;99.90
62555;DHT22;48610;52.144;8.624;2023-01-29T03:31:49;1.20;99.90
62555;DHT22;48610;52.144;8.624;2023-01-29T03:35:05;1.00;99.90
62555;DHT22;48610;52.144;8.624;2023-01-29T03:38:09;0.60;99.90
62555;DHT22;48610;52.144;8.624;2023-01-29T03:44:40;0.70;99.90
62555;DHT22;48610;52.144;8.624;2023-01-29T03:48:03;0.80;99.90
62555;DHT22;48610;52.144;8.624;2023-01-29T03:54:35;1.10;99.90
62555;DHT22;48610;52.144;8.624;2023-01-29T04:01:23;1.40;99.90
62555;DHT22;48610;52.144;8.624;2023-01-29T04:04:32;1.30;99.90
62555;DHT22;48610;52.144;8.624;2023-01-29T04:07:35;1.20;99.90
62555;DHT22;48610;52.144;8.624;2023-01-29T04:10:38;1.30;99.90
62555;DHT22;48610;52.144;8.624;2023-01-29T04:13:39;1.10;99.90
62555;DHT22;48610;52.144;8.624;2023-01-29T04:16:43;1.00;99.90
62555;DHT22;48610;52.144;8.624;2023-01-29T04:19:46;1.20;99.90
62555;DHT22;48610;52.144;8.624;2023-01-29T04:22:49;1.10;99.90
62555;DHT22;48610;52.144;8.624;2023-01-29T04:32:56;1.20;99.90
62555;DHT22;48610;52.144;8.624;2023-01-29T04:39:17;1.20;99.90
62555;DHT22;48610;52.144;8.624;2023-01-29T04:46:14;1.00;99.90
62555;DHT22;48610;52.144;8.624;2023-01-29T04:49:26;1.10;99.90
62555;DHT22;48610;52.144;8.624;2023-01-29T04:52:54;1.30;99.90
62555;DHT22;48610;52.144;8.624;2023-01-29T04:59:13;1.60;99.90
62555;DHT22;48610;52.144;8.624;2023-01-29T05:02:18;1.50;99.90
62555;DHT22;48610;52.144;8.624;2023-01-29T05:05:21;1.60;99.90
62555;DHT22;48610;52.144;8.624;2023-01-29T05:08:23;1.60;99.90
62555;DHT22;48610;52.144;8.624;2023-01-29T05:11:24;1.40;99.90
62555;DHT22;48610;52.144;8.624;2023-01-29T05:14:26;1.40;99.90
62555;DHT22;48610;52.144;8.624;2023-01-29T05:17:27;1.40;99.90
62555;DHT22;48610;52.144;8.624;2023-01-29T05:20:40;1.30;99.90
62555;DHT22;48610;52.144;8.624;2023-01-29T05:23:42;1.30;99.90
62555;DHT22;48610;52.144;8.624;2023-01-29T05:26:57;1.40;99.90
62555;DHT22;48610;52.144;8.624;2023-01-29T05:30:16;1.20;99.90
62555;DHT22;48610;52.144;8.624;2023-01-29T05:33:30;1.40;99.90
62555;DHT22;48610;52.144;8.624;2023-01-29T05:36:32;1.20;99.90
62555;DHT22;48610;52.144;8.624;2023-01-29T05:39:32;1.00;99.90
62555;DHT22;48610;52.144;8.624;2023-01-29T05:42:33;1.10;99.90
62555;DHT22;48610;52.144;8.624;2023-01-29T05:45:33;1.10;99.90
62555;DHT22;48610;52.144;8.624;2023-01-29T05:48:34;1.00;99.90
62555;DHT22;48610;52.144;8.624;2023-01-29T05:51:38;0.90;99.90
62555;DHT22;48610;52.144;8.624;2023-01-29T05:54:39;1.00;99.90
62555;DHT22;48610;52.144;8.624;2023-01-29T05:57:40;1.00;99.90
62555;DHT22;48610;52.144;8.624;2023-01-29T06:00:53;1.20;99.90
62555;DHT22;48610;52.144;8.624;2023-01-29T06:03:54;1.20;99.90
62555;DHT22;48610;52.144;8.624;2023-01-29T06:06:54;1.40;99.90
62555;DHT22;48610;52.144;8.624;2023-01-29T06:09:55;1.30;99.90
62555;DHT22;48610;52.144;8.624;2023-01-29T06:12:55;1.40;99.90
62555;DHT22;48610;52.144;8.624;2023-01-29T06:15:56;1.20;99.90
62555;DHT22;48610;52.144;8.624;2023-01-29T06:19:27;1.10;99.90
62555;DHT22;48610;52.144;8.624;2023-01-29T06:22:27;1.00;99.90
62555;DHT22;48610;52.144;8.624;2023-01-29T06:25:28;1.20;99.90
62555;DHT22;48610;52.144;8.624;2023-01-29T06:28:35;1.10;99.90
62555;DHT22;48610;52.144;8.624;2023-01-29T06:31:36;1.20;99.90
62555;DHT22;48610;52.144;8.624;2023-01-29T06:34:43;1.30;99.90
62555;DHT22;48610;52.144;8.624;2023-01-29T06:37:44;1.00;99.90
62555;DHT22;48610;52.144;8.624;2023-01-29T06:40:45;1.00;99.90
62555;DHT22;48610;52.144;8.624;2023-01-29T06:43:46;0.80;99.90
62555;DHT22;48610;52.144;8.624;2023-01-29T06:46:47;1.00;99.90
62555;DHT22;48610;52.144;8.624;2023-01-29T06:49:48;0.90;99.90
62555;DHT22;48610;52.144;8.624;2023-01-29T06:52:49;0.90;99.90
62555;DHT22;48610;52.144;8.624;2023-01-29T06:55:52;0.70;99.90
62555;DHT22;48610;52.144;8.624;2023-01-29T06:58:53;0.60;99.90
62555;DHT22;48610;52.144;8.624;2023-01-29T07:01:53;0.60;99.90
62555;DHT22;48610;52.144;8.624;2023-01-29T07:04:54;0.60;99.90
62555;DHT22;48610;52.144;8.624;2023-01-29T07:08:02;0.70;99.90
62555;DHT22;48610;52.144;8.624;2023-01-29T07:11:02;0.80;99.90
62555;DHT22;48610;52.144;8.624;2023-01-29T07:14:12;0.90;99.90
62555;DHT22;48610;52.144;8.624;2023-01-29T07:17:13;0.90;99.90
62555;DHT22;48610;52.144;8.624;2023-01-29T07:20:14;1.00;99.90
62555;DHT22;48610;52.144;8.624;2023-01-29T07:23:22;0.80;99.90
62555;DHT22;48610;52.144;8.624;2023-01-29T07:26:23;0.90;99.90
62555;DHT22;48610;52.144;8.624;2023-01-29T07:29:23;1.00;99.90
62555;DHT22;48610;52.144;8.624;2023-01-29T07:32:24;0.90;99.90
62555;DHT22;48610;52.144;8.624;2023-01-29T07:35:24;0.90;99.90
62555;DHT22;48610;52.144;8.624;2023-01-29T07:38:25;0.90;99.90
62555;DHT22;48610;52.144;8.624;2023-01-29T07:41:25;0.90;99.90
62555;DHT22;48610;52.144;8.624;2023-01-29T07:44:26;1.00;99.90
62555;DHT22;48610;52.144;8.624;2023-01-29T07:47:27;1.00;99.90
62555;DHT22;48610;52.144;8.624;2023-01-29T07:50:27;1.10;99.90
62555;DHT22;48610;52.144;8.624;2023-01-29T07:53:28;1.00;99.90
62555;DHT22;48610;52.144;8.624;2023-01-29T07:56:30;1.10;99.90
62555;DHT22;48610;52.144;8.624;2023-01-29T07:59:30;1.00;99.90
62555;DHT22;48610;52.144;8.624;2023-01-29T08:02:31;0.90;99.90
62555;DHT22;48610;52.144;8.624;2023-01-29T08:05:32;1.00;99.90
62555;DHT22;48610;52.144;8.624;2023-01-29T08:08:33;1.10;99.90
62555;DHT22;48610;52.144;8.624;2023-01-29T08:11:33;1.10;99.90
62555;DHT22;48610;52.144;8.624;2023-01-29T08:14:34;1.00;99.90
62555;DHT22;48610;52.144;8.624;2023-01-29T08:17:34;0.90;99.90
62555;DHT22;48610;52.144;8.624;2023-01-29T08:20:35;1.00;99.90
62555;DHT22;48610;52.144;8.624;2023-01-29T08:23:35;1.10;99.90
62555;DHT22;48610;52.144;8.624;2023-01-29T08:26:36;1.10;99.90
62555;DHT22;48610;52.144;8.624;2023-01-29T08:29:36;1.10;99.90
62555;DHT22;48610;52.144;8.624;2023-01-29T08:32:37;1.10;99.90
62555;DHT22;48610;52.144;8.624;2023-01-29T08:35:38;1.20;99.90
62555;DHT22;48610;52.144;8.624;2023-01-29T08:38:40;1.20;99.90
62555;DHT22;48610;52.144;8.624;2023-01-29T08:41:41;1.20;99.90
62555;DHT22;48610;52.144;8.624;2023-01-29T08:44:43;1.20;99.90
62555;DHT22;48610;52.144;8.624;2023-01-29T08:47:48;1.00;99.90
62555;DHT22;48610;52.144;8.624;2023-01-29T08:50:48;1.00;99.90
62555;DHT22;48610;52.144;8.624;2023-01-29T08:53:49;1.30;99.90
62555;DHT22;48610;52.144;8.624;2023-01-29T08:56:50;1.30;99.90
62555;DHT22;48610;52.144;8.624;2023-01-29T08:59:50;1.30;99.90
62555;DHT22;48610;52.144;8.624;2023-01-29T09:02:51;1.30;99.90
62555;DHT22;48610;52.144;8.624;2023-01-29T09:05:51;1.40;99.90
62555;DHT22;48610;52.144;8.624;2023-01-29T09:08:53;1.50;99.90
62555;DHT22;48610;52.144;8.624;2023-01-29T09:11:54;1.50;99.90
62555;DHT22;48610;52.144;8.624;2023-01-29T09:30:49;1.10;99.90
62555;DHT22;48610;52.144;8.624;2023-01-29T09:33:50;1.30;99.90
62555;DHT22;48610;52.144;8.624;2023-01-29T09:37:00;1.30;99.90
62555;DHT22;48610;52.144;8.624;2023-01-29T09:40:03;1.30;99.90
62555;DHT22;48610;52.144;8.624;2023-01-29T09:46:51;1.50;99.90
62555;DHT22;48610;52.144;8.624;2023-01-29T09:50:06;1.40;99.90
62555;DHT22;48610;52.144;8.624;2023-01-29T09:53:35;1.50;99.90
62555;DHT22;48610;52.144;8.624;2023-01-29T09:56:41;1.60;99.90
62555;DHT22;48610;52.144;8.624;2023-01-29T09:59:51;1.60;99.90
62555;DHT22;48610;52.144;8.624;2023-01-29T10:03:11;1.60;99.90
62555;DHT22;48610;52.144;8.624;2023-01-29T10:10:16;1.60;99.90
62555;DHT22;48610;52.144;8.624;2023-01-29T10:13:43;1.60;99.90
62555;DHT22;48610;52.144;8.624;2023-01-29T10:26:30;1.70;99.90
62555;DHT22;48610;52.144;8.624;2023-01-29T10:30:05;1.70;99.90
62555;DHT22;48610;52.144;8.624;2023-01-29T10:37:18;1.70;99.90
62555;DHT22;48610;52.144;8.624;2023-01-29T11:03:15;1.80;99.90
62555;DHT22;48610;52.144;8.624;2023-01-29T11:06:43;1.70;99.90
62555;DHT22;48610;52.144;8.624;2023-01-29T11:10:06;1.60;99.90
62555;DHT22;48610;52.144;8.624;2023-01-29T11:13:13;1.70;99.90
62555;DHT22;48610;52.144;8.624;2023-01-29T11:16:44;1.70;99.90
62555;DHT22;48610;52.144;8.624;2023-01-29T11:20:04;1.80;99.90
62555;DHT22;48610;52.144;8.624;2023-01-29T11:23:29;1.70;99.90
62555;DHT22;48610;52.144;8.624;2023-01-29T11:26:34;1.80;99.90
62555;DHT22;48610;52.144;8.624;2023-01-29T11:33:22;1.80;99.90
62555;DHT22;48610;52.144;8.624;2023-01-29T11:39:29;1.80;99.90
62555;DHT22;48610;52.144;8.624;2023-01-29T11:42:32;1.90;99.90
62555;DHT22;48610;52.144;8.624;2023-01-29T11:45:37;1.90;99.90
62555;DHT22;48610;52.144;8.624;2023-01-29T11:48:44;2.00;99.90
62555;DHT22;48610;52.144;8.624;2023-01-29T11:51:51;2.10;99.90
62555;DHT22;48610;52.144;8.624;2023-01-29T11:55:00;2.10;99.90
62555;DHT22;48610;52.144;8.624;2023-01-29T11:58:15;2.20;99.90
62555;DHT22;48610;52.144;8.624;2023-01-29T12:05:17;2.10;99.90
62555;DHT22;48610;52.144;8.624;2023-01-29T12:08:29;2.10;99.90
62555;DHT22;48610;52.144;8.624;2023-01-29T12:11:34;2.30;99.90
62555;DHT22;48610;52.144;8.624;2023-01-29T12:14:34;2.40;99.90
62555;DHT22;48610;52.144;8.624;2023-01-29T12:17:40;2.40;99.90
62555;DHT22;48610;52.144;8.624;2023-01-29T12:20:56;2.40;99.90
62555;DHT22;48610;52.144;8.624;2023-01-29T12:24:34;2.20;99.90
62555;DHT22;48610;52.144;8.624;2023-01-29T12:27:45;2.30;99.90
62555;DHT22;48610;52.144;8.624;2023-01-29T12:38:18;2.50;99.90
62555;DHT22;48610;52.144;8.624;2023-01-29T12:41:42;2.60;99.90
62555;DHT22;48610;52.144;8.624;2023-01-29T12:44:52;2.50;99.90
62555;DHT22;48610;52.144;8.624;2023-01-29T12:47:59;2.60;99.90
62555;DHT22;48610;52.144;8.624;2023-01-29T12:51:06;2.80;99.90
62555;DHT22;48610;52.144;8.624;2023-01-29T12:54:13;2.80;99.90
62555;DHT22;48610;52.144;8.624;2023-01-29T12:57:55;2.90;99.90
62555;DHT22;48610;52.144;8.624;2023-01-29T13:01:02;2.80;99.90
62555;DHT22;48610;52.144;8.624;2023-01-29T13:07:37;2.70;99.90
62555;DHT22;48610;52.144;8.624;2023-01-29T13:10:48;2.70;99.90
62555;DHT22;48610;52.144;8.624;2023-01-29T13:14:03;2.70;99.90
62555;DHT22;48610;52.144;8.624;2023-01-29T13:17:35;2.60;99.90
62555;DHT22;48610;52.144;8.624;2023-01-29T13:20:34;2.50;99.90
62555;DHT22;48610;52.144;8.624;2023-01-29T13:23:41;2.60;99.90
62555;DHT22;48610;52.144;8.624;2023-01-29T13:26:49;2.70;99.90
62555;DHT22;48610;52.144;8.624;2023-01-29T13:30:00;2.70;99.90
62555;DHT22;48610;52.144;8.624;2023-01-29T13:33:03;2.70;99.90
62555;DHT22;48610;52.144;8.624;2023-01-29T13:36:26;2.50;99.90
62555;DHT22;48610;52.144;8.624;2023-01-29T13:39:33;2.60;99.90
62555;DHT22;48610;52.144;8.624;2023-01-29T13:45:50;2.60;99.90
62555;DHT22;48610;52.144;8.624;2023-01-29T13:48:52;2.70;99.90
62555;DHT22;48610;52.144;8.624;2023-01-29T13:52:26;2.70;99.90
62555;DHT22;48610;52.144;8.624;2023-01-29T13:55:39;2.70;99.90
62555;DHT22;48610;52.144;8.624;2023-01-29T13:58:56;2.80;99.90
62555;DHT22;48610;52.144;8.624;2023-01-29T14:02:23;2.80;99.90
62555;DHT22;48610;52.144;8.624;2023-01-29T14:13:37;2.70;99.90
62555;DHT22;48610;52.144;8.624;2023-01-29T14:16:37;2.70;99.90
62555;DHT22;48610;52.144;8.624;2023-01-29T14:19:48;2.60;99.90
62555;DHT22;48610;52.144;8.624;2023-01-29T14:22:55;2.50;99.90
62555;DHT22;48610;52.144;8.624;2023-01-29T14:25:59;2.50;99.90
62555;DHT22;48610;52.144;8.624;2023-01-29T14:32:18;2.70;99.90
62555;DHT22;48610;52.144;8.624;2023-01-29T14:35:26;2.70;99.90
62555;DHT22;48610;52.144;8.624;2023-01-29T14:38:27;2.70;99.90
62555;DHT22;48610;52.144;8.624;2023-01-29T14:41:31;2.80;99.90
62555;DHT22;48610;52.144;8.624;2023-01-29T14:45:00;2.60;99.90
62555;DHT22;48610;52.144;8.624;2023-01-29T14:51:18;2.60;99.90
62555;DHT22;48610;52.144;8.624;2023-01-29T14:54:35;2.50;99.90
62555;DHT22;48610;52.144;8.624;2023-01-29T14:57:38;2.60;99.90
62555;DHT22;48610;52.144;8.624;2023-01-29T15:00:49;2.60;99.90
62555;DHT22;48610;52.144;8.624;2023-01-29T15:03:52;2.70;99.90
62555;DHT22;48610;52.144;8.624;2023-01-29T15:14:35;2.50;99.90
62555;DHT22;48610;52.144;8.624;2023-01-29T15:21:18;2.60;99.90
62555;DHT22;48610;52.144;8.624;2023-01-29T15:24:38;2.70;99.90
62555;DHT22;48610;52.144;8.624;2023-01-29T15:27:43;2.70;99.90
62555;DHT22;48610;52.144;8.624;2023-01-29T15:31:15;2.60;99.90
62555;DHT22;48610;52.144;8.624;2023-01-29T15:34:25;2.50;99.90
62555;DHT22;48610;52.144;8.624;2023-01-29T15:37:35;2.60;99.90
62555;DHT22;48610;52.144;8.624;2023-01-29T15:40:36;2.60;99.90
62555;DHT22;48610;52.144;8.624;2023-01-29T15:43:55;2.60;99.90
62555;DHT22;48610;52.144;8.624;2023-01-29T15:46:58;2.50;99.90
62555;DHT22;48610;52.144;8.624;2023-01-29T15:50:03;2.60;99.90
62555;DHT22;48610;52.144;8.624;2023-01-29T15:53:07;2.50;99.90
62555;DHT22;48610;52.144;8.624;2023-01-29T15:56:10;2.30;99.90
62555;DHT22;48610;52.144;8.624;2023-01-29T15:59:22;2.40;99.90
62555;DHT22;48610;52.144;8.624;2023-01-29T16:02:42;2.40;99.90
62555;DHT22;48610;52.144;8.624;2023-01-29T16:06:11;2.40;99.90
62555;DHT22;48610;52.144;8.624;2023-01-29T16:09:19;2.30;99.90
62555;DHT22;48610;52.144;8.624;2023-01-29T16:12:21;2.30;99.90
62555;DHT22;48610;52.144;8.624;2023-01-29T16:15:38;2.30;99.90
62555;DHT22;48610;52.144;8.624;2023-01-29T16:18:54;2.40;99.90
62555;DHT22;48610;52.144;8.624;2023-01-29T16:21:59;2.50;99.90
62555;DHT22;48610;52.144;8.624;2023-01-29T16:25:03;2.50;99.90
62555;DHT22;48610;52.144;8.624;2023-01-29T16:28:07;2.40;99.90
62555;DHT22;48610;52.144;8.624;2023-01-29T16:31:10;2.40;99.90
62555;DHT22;48610;52.144;8.624;2023-01-29T16:37:34;2.40;99.90
62555;DHT22;48610;52.144;8.624;2023-01-29T16:40:36;2.50;99.90
62555;DHT22;48610;52.144;8.624;2023-01-29T16:46:47;2.40;99.90
62555;DHT22;48610;52.144;8.624;2023-01-29T16:49:50;2.20;99.90
62555;DHT22;48610;52.144;8.624;2023-01-29T16:52:59;2.20;99.90
62555;DHT22;48610;52.144;8.624;2023-01-29T16:56:05;2.20;99.90
62555;DHT22;48610;52.144;8.624;2023-01-29T16:59:15;2.30;99.90
62555;DHT22;48610;52.144;8.624;2023-01-29T17:02:24;2.10;99.90
62555;DHT22;48610;52.144;8.624;2023-01-29T17:05:29;2.30;99.90
62555;DHT22;48610;52.144;8.624;2023-01-29T17:08:32;2.30;99.90
62555;DHT22;48610;52.144;8.624;2023-01-29T17:11:38;2.50;99.90
62555;DHT22;48610;52.144;8.624;2023-01-29T17:15:01;2.60;99.90
62555;DHT22;48610;52.144;8.624;2023-01-29T17:18:02;2.50;99.90
62555;DHT22;48610;52.144;8.624;2023-01-29T17:21:03;2.50;99.90
62555;DHT22;48610;52.144;8.624;2023-01-29T17:24:03;2.50;99.90
62555;DHT22;48610;52.144;8.624;2023-01-29T17:27:04;2.60;99.90
62555;DHT22;48610;52.144;8.624;2023-01-29T17:30:05;2.70;99.90
62555;DHT22;48610;52.144;8.624;2023-01-29T17:33:14;2.50;99.90
62555;DHT22;48610;52.144;8.624;2023-01-29T17:36:16;2.50;99.90
62555;DHT22;48610;52.144;8.624;2023-01-29T17:39:20;2.40;99.90
62555;DHT22;48610;52.144;8.624;2023-01-29T17:42:22;2.30;99.90
62555;DHT22;48610;52.144;8.624;2023-01-29T17:45:24;2.30;99.90
62555;DHT22;48610;52.144;8.624;2023-01-29T17:48:27;2.50;99.90
62555;DHT22;48610;52.144;8.624;2023-01-29T17:51:31;2.50;99.90
62555;DHT22;48610;52.144;8.624;2023-01-29T17:54:31;2.30;99.90
62555;DHT22;48610;52.144;8.624;2023-01-29T17:57:32;2.30;99.90
62555;DHT22;48610;52.144;8.624;2023-01-29T18:00:32;2.10;99.90
62555;DHT22;48610;52.144;8.624;2023-01-29T18:03:35;1.90;99.90
62555;DHT22;48610;52.144;8.624;2023-01-29T18:06:42;1.80;99.90
62555;DHT22;48610;52.144;8.624;2023-01-29T18:09:44;1.70;99.90
62555;DHT22;48610;52.144;8.624;2023-01-29T18:12:45;1.80;99.90
62555;DHT22;48610;52.144;8.624;2023-01-29T18:15:46;1.80;99.90
62555;DHT22;48610;52.144;8.624;2023-01-29T18:19:19;1.90;99.90
62555;DHT22;48610;52.144;8.624;2023-01-29T18:22:48;1.70;99.90
62555;DHT22;48610;52.144;8.624;2023-01-29T18:25:49;1.70;99.90
62555;DHT22;48610;52.144;8.624;2023-01-29T18:28:49;1.90;99.90
62555;DHT22;48610;52.144;8.624;2023-01-29T18:31:50;1.90;99.90
62555;DHT22;48610;52.144;8.624;2023-01-29T18:35:01;1.80;99.90
62555;DHT22;48610;52.144;8.624;2023-01-29T18:38:02;1.80;99.90
62555;DHT22;48610;52.144;8.624;2023-01-29T18:41:05;1.90;99.90
62555;DHT22;48610;52.144;8.624;2023-01-29T18:44:06;1.90;99.90
62555;DHT22;48610;52.144;8.624;2023-01-29T18:47:06;1.90;99.90
62555;DHT22;48610;52.144;8.624;2023-01-29T18:50:07;1.60;99.90
62555;DHT22;48610;52.144;8.624;2023-01-29T18:53:08;1.60;99.90
62555;DHT22;48610;52.144;8.624;2023-01-29T18:56:09;1.70;99.90
62555;DHT22;48610;52.144;8.624;2023-01-29T18:59:10;1.70;99.90
62555;DHT22;48610;52.144;8.624;2023-01-29T19:02:13;1.70;99.90
62555;DHT22;48610;52.144;8.624;2023-01-29T19:05:14;1.80;99.90
62555;DHT22;48610;52.144;8.624;2023-01-29T19:08:16;1.90;99.90
62555;DHT22;48610;52.144;8.624;2023-01-29T19:11:16;1.80;99.90
62555;DHT22;48610;52.144;8.624;2023-01-29T19:14:17;1.80;99.90
62555;DHT22;48610;52.144;8.624;2023-01-29T19:17:35;1.90;99.90
62555;DHT22;48610;52.144;8.624;2023-01-29T19:20:39;1.70;99.90
62555;DHT22;48610;52.144;8.624;2023-01-29T19:23:41;1.80;99.90
62555;DHT22;48610;52.144;8.624;2023-01-29T19:26:41;1.90;99.90
62555;DHT22;48610;52.144;8.624;2023-01-29T19:29:42;1.80;99.90
62555;DHT22;48610;52.144;8.624;2023-01-29T19:32:42;1.80;99.90
62555;DHT22;48610;52.144;8.624;2023-01-29T19:35:44;1.90;99.90
62555;DHT22;48610;52.144;8.624;2023-01-29T19:38:44;1.90;99.90
62555;DHT22;48610;52.144;8.624;2023-01-29T19:41:45;1.80;99.90
62555;DHT22;48610;52.144;8.624;2023-01-29T19:44:45;1.70;99.90
62555;DHT22;48610;52.144;8.624;2023-01-29T19:47:46;1.90;99.90
62555;DHT22;48610;52.144;8.624;2023-01-29T19:51:00;2.00;99.90
62555;DHT22;48610;52.144;8.624;2023-01-29T19:54:03;1.90;99.90
62555;DHT22;48610;52.144;8.624;2023-01-29T19:57:04;1.90;99.90
62555;DHT22;48610;52.144;8.624;2023-01-29T20:00:06;2.00;99.90
62555;DHT22;48610;52.144;8.624;2023-01-29T20:03:07;1.90;99.90
62555;DHT22;48610;52.144;8.624;2023-01-29T20:06:09;1.90;99.90
62555;DHT22;48610;52.144;8.624;2023-01-29T20:09:10;1.90;99.90
62555;DHT22;48610;52.144;8.624;2023-01-29T20:15:58;1.90;99.90
62555;DHT22;48610;52.144;8.624;2023-01-29T20:19:03;2.00;99.90
62555;DHT22;48610;52.144;8.624;2023-01-29T20:22:03;2.00;99.90
62555;DHT22;48610;52.144;8.624;2023-01-29T20:25:04;2.10;99.90
62555;DHT22;48610;52.144;8.624;2023-01-29T20:28:08;2.20;99.90
62555;DHT22;48610;52.144;8.624;2023-01-29T20:31:09;2.20;99.90
62555;DHT22;48610;52.144;8.624;2023-01-29T20:34:11;2.10;99.90
62555;DHT22;48610;52.144;8.624;2023-01-29T20:37:11;2.30;99.90
62555;DHT22;48610;52.144;8.624;2023-01-29T20:40:12;2.30;99.90
62555;DHT22;48610;52.144;8.624;2023-01-29T20:43:14;2.30;99.90
62555;DHT22;48610;52.144;8.624;2023-01-29T20:46:15;2.30;99.90
62555;DHT22;48610;52.144;8.624;2023-01-29T20:49:16;2.40;99.90
62555;DHT22;48610;52.144;8.624;2023-01-29T20:52:17;2.50;99.90
62555;DHT22;48610;52.144;8.624;2023-01-29T20:55:18;2.50;99.90
62555;DHT22;48610;52.144;8.624;2023-01-29T20:58:18;2.50;99.90
62555;DHT22;48610;52.144;8.624;2023-01-29T21:01:19;2.60;99.90
62555;DHT22;48610;52.144;8.624;2023-01-29T21:04:20;2.70;99.90
62555;DHT22;48610;52.144;8.624;2023-01-29T21:07:21;2.80;99.90
62555;DHT22;48610;52.144;8.624;2023-01-29T21:10:22;2.80;99.90
62555;DHT22;48610;52.144;8.624;2023-01-29T21:13:22;2.80;99.90
62555;DHT22;48610;52.144;8.624;2023-01-29T21:16:23;2.80;99.90
62555;DHT22;48610;52.144;8.624;2023-01-29T21:19:25;2.80;99.90
62555;DHT22;48610;52.144;8.624;2023-01-29T21:22:26;2.80;99.90
62555;DHT22;48610;52.144;8.624;2023-01-29T21:25:26;2.80;99.90
62555;DHT22;48610;52.144;8.624;2023-01-29T21:28:27;2.70;99.90
62555;DHT22;48610;52.144;8.624;2023-01-29T21:31:27;2.70;99.90
62555;DHT22;48610;52.144;8.624;2023-01-29T21:34:28;2.80;99.90
62555;DHT22;48610;52.144;8.624;2023-01-29T21:37:28;2.90;99.90
62555;DHT22;48610;52.144;8.624;2023-01-29T21:40:29;2.80;99.90
62555;DHT22;48610;52.144;8.624;2023-01-29T21:43:29;2.90;99.90
62555;DHT22;48610;52.144;8.624;2023-01-29T21:46:30;2.90;99.90
62555;DHT22;48610;52.144;8.624;2023-01-29T21:49:30;2.90;99.90
62555;DHT22;48610;52.144;8.624;2023-01-29T21:52:32;2.90;99.90
62555;DHT22;48610;52.144;8.624;2023-01-29T21:55:33;2.90;99.90
62555;DHT22;48610;52.144;8.624;2023-01-29T21:58:33;3.00;99.90
62555;DHT22;48610;52.144;8.624;2023-01-29T22:01:34;2.80;99.90
62555;DHT22;48610;52.144;8.624;2023-01-29T22:04:34;2.90;99.90
62555;DHT22;48610;52.144;8.624;2023-01-29T22:07:35;3.00;99.90
62555;DHT22;48610;52.144;8.624;2023-01-29T22:10:36;3.00;99.90
62555;DHT22;48610;52.144;8.624;2023-01-29T22:13:38;3.10;99.90
62555;DHT22;48610;52.144;8.624;2023-01-29T22:16:38;3.10;99.90
62555;DHT22;48610;52.144;8.624;2023-01-29T22:19:39;3.10;99.90
62555;DHT22;48610;52.144;8.624;2023-01-29T22:22:40;3.10;99.90
62555;DHT22;48610;52.144;8.624;2023-01-29T22:25:41;3.10;99.90
62555;DHT22;48610;52.144;8.624;2023-01-29T22:28:43;3.00;99.90
62555;DHT22;48610;52.144;8.624;2023-01-29T22:31:44;3.10;99.90
62555;DHT22;48610;52.144;8.624;2023-01-29T22:34:45;3.10;99.90
62555;DHT22;48610;52.144;8.624;2023-01-29T22:37:45;3.10;99.90